Main page
METAR-TAF:

METAR-TAF

Airports :

North Perry Airport

Hollywood, Florida, United States

latitude: 25-59-56N, longitude: 080-14-28W, elevation: 7 ft

Current weather observation

The report was made 40 minutes ago, at 03:53 UTC
Wind 6 mph from the East
Temperature 81°F
Humidity 70%
Pressure 29.99 in. Hg
Visibility: 10 miles
Clear sky

METAR: KHWO 240353Z AUTO 09005KT 10SM CLR 27/21 A2999 RMK AO2 SLP155 T02670211 PWINO

Time: 00:33 (04:33 UTC)


TAF: missing

Weather observations and forecasts of more than 4000 airports (METAR and TAF reports).

The available stations are represented by yellow and red dots on the map.

Hover mouse over dot to see the name of the station.

Then click to see weather observations and forecasts.

To change the map : click on the green buttons with a black cross to zoom in, on the green button with a dash to zoom out, or on the green arrows for adjacent maps.


METAR-TAF: